UAL731 MMMX-KEYW
Flight info
| Callsign | UAL731 |
|---|---|
| Flight time | 0h 52m |
| Altitude | 37000 |
| Route | NOXOS3A NOXOS UT155 AVALI UM580 NUBEL UR522 AXOMU UM346 CANOA Y196 LULLS |
| Aircraft | B738/M-SDE2E3FGHIRWXY/LB1 |
Departure
| Time | 2026-05-04 19:24 |
|---|---|
| Airport | Mexico City Benito Juárez International Airport (MMMX) |
Arrival
| Time | 2026-05-04 20:16 |
|---|---|
| Airport | Key West International Airport (KEYW) |
| Time | Latitude | Longitude | Altitude | Speed | Heading |
|---|---|---|---|---|---|
| 2026-05-04 18:56 | 19.43314 | -99.08469 | 7302 ft | 0 kts | 329° |
| 2026-05-04 19:15 | 19.43300 | -99.08460 | 7302 ft | 2 kts | 327° |
| 2026-05-04 19:15 | 19.43287 | -99.08450 | 7302 ft | 2 kts | 324° |
| 2026-05-04 19:15 | 19.43274 | -99.08439 | 7302 ft | 2 kts | 319° |
| 2026-05-04 19:16 | 19.43262 | -99.08427 | 7302 ft | 2 kts | 308° |
| 2026-05-04 19:16 | 19.43254 | -99.08412 | 7302 ft | 2 kts | 277° |
| 2026-05-04 19:16 | 19.43256 | -99.08397 | 7302 ft | 1 kts | 241° |
| 2026-05-04 19:16 | 19.43257 | -99.08395 | 7302 ft | 0 kts | 240° |
| 2026-05-04 19:19 | 19.43255 | -99.08398 | 7302 ft | 2 kts | 240° |
| 2026-05-04 19:19 | 19.43235 | -99.08433 | 7302 ft | 8 kts | 239° |
| 2026-05-04 19:19 | 19.43204 | -99.08489 | 7302 ft | 9 kts | 240° |
| 2026-05-04 19:19 | 19.43172 | -99.08547 | 7302 ft | 9 kts | 240° |
| 2026-05-04 19:20 | 19.43140 | -99.08605 | 7302 ft | 9 kts | 239° |
| 2026-05-04 19:20 | 19.43106 | -99.08667 | 7302 ft | 11 kts | 239° |
| 2026-05-04 19:20 | 19.43063 | -99.08741 | 7302 ft | 13 kts | 239° |
| 2026-05-04 19:20 | 19.43030 | -99.08800 | 7302 ft | 14 kts | 239° |
| 2026-05-04 19:21 | 19.42976 | -99.08895 | 7302 ft | 15 kts | 239° |
| 2026-05-04 19:21 | 19.42925 | -99.08987 | 7302 ft | 13 kts | 239° |
| 2026-05-04 19:21 | 19.42859 | -99.09045 | 7302 ft | 9 kts | 208° |
| 2026-05-04 19:21 | 19.42857 | -99.09046 | 7302 ft | 0 kts | 208° |
| 2026-05-04 19:22 | 19.42855 | -99.09048 | 7302 ft | 2 kts | 208° |
| 2026-05-04 19:22 | 19.42813 | -99.09071 | 7302 ft | 10 kts | 208° |
| 2026-05-04 19:22 | 19.42757 | -99.09057 | 7302 ft | 11 kts | 91° |
| 2026-05-04 19:22 | 19.42792 | -99.08988 | 7302 ft | 12 kts | 59° |
| 2026-05-04 19:23 | 19.42937 | -99.08732 | 7301 ft | 73 kts | 59° |
| 2026-05-04 19:23 | 19.43305 | -99.08084 | 7302 ft | 131 kts | 59° |
| 2026-05-04 19:23 | 19.43861 | -99.07104 | 7306 ft | 178 kts | 59° |
| 2026-05-04 19:23 | 19.44515 | -99.05920 | 7776 ft | 191 kts | 59° |
| 2026-05-04 19:24 | 19.45190 | -99.04650 | 8532 ft | 202 kts | 59° |
| 2026-05-04 19:24 | 19.45926 | -99.03271 | 8760 ft | 227 kts | 59° |
| 2026-05-04 19:24 | 19.46771 | -99.01802 | 8997 ft | 246 kts | 58° |
| 2026-05-04 19:24 | 19.47706 | -99.00193 | 9165 ft | 266 kts | 58° |
| 2026-05-04 19:25 | 19.48688 | -98.98471 | 9391 ft | 281 kts | 58° |
| 2026-05-04 19:25 | 19.49734 | -98.96625 | 9500 ft | 300 kts | 58° |
| 2026-05-04 19:25 | 19.50790 | -98.94747 | 10200 ft | 292 kts | 58° |
| 2026-05-04 19:25 | 19.51833 | -98.92888 | 10900 ft | 295 kts | 58° |
| 2026-05-04 19:26 | 19.52882 | -98.91015 | 11574 ft | 298 kts | 58° |
| 2026-05-04 19:26 | 19.53741 | -98.88996 | 12225 ft | 302 kts | 72° |
| 2026-05-04 19:26 | 19.54307 | -98.86863 | 13057 ft | 301 kts | 75° |
| 2026-05-04 19:26 | 19.54826 | -98.84698 | 13754 ft | 305 kts | 76° |
| 2026-05-04 19:27 | 19.55358 | -98.82503 | 14374 ft | 309 kts | 75° |
| 2026-05-04 19:27 | 19.55910 | -98.80303 | 15029 ft | 311 kts | 74° |
| 2026-05-04 19:27 | 19.56486 | -98.78079 | 15631 ft | 315 kts | 73° |
| 2026-05-04 19:27 | 19.57071 | -98.75844 | 16338 ft | 315 kts | 73° |
| 2026-05-04 19:28 | 19.57664 | -98.73584 | 16886 ft | 322 kts | 73° |
| 2026-05-04 19:28 | 19.58197 | -98.71228 | 17191 ft | 338 kts | 77° |
| 2026-05-04 19:28 | 19.58640 | -98.68707 | 17323 ft | 357 kts | 78° |
| 2026-05-04 19:28 | 19.59074 | -98.66052 | 17555 ft | 371 kts | 78° |
| 2026-05-04 19:29 | 19.59516 | -98.63362 | 18264 ft | 370 kts | 78° |
| 2026-05-04 19:29 | 19.59970 | -98.60662 | 18779 ft | 374 kts | 78° |
| 2026-05-04 19:29 | 19.60441 | -98.57930 | 19210 ft | 379 kts | 78° |
| 2026-05-04 19:29 | 19.60922 | -98.55166 | 19709 ft | 383 kts | 78° |
| 2026-05-04 19:30 | 19.61407 | -98.52381 | 20213 ft | 386 kts | 78° |
| 2026-05-04 19:30 | 19.61699 | -98.49542 | 20695 ft | 391 kts | 88° |
| 2026-05-04 19:30 | 19.61602 | -98.46648 | 21185 ft | 395 kts | 91° |
| 2026-05-04 19:30 | 19.61449 | -98.43728 | 21663 ft | 398 kts | 91° |
| 2026-05-04 19:31 | 19.61331 | -98.40782 | 22107 ft | 402 kts | 90° |
| 2026-05-04 19:31 | 19.61239 | -98.37809 | 22569 ft | 405 kts | 90° |
| 2026-05-04 19:31 | 19.61156 | -98.34812 | 23023 ft | 408 kts | 90° |
| 2026-05-04 19:31 | 19.61076 | -98.31793 | 23480 ft | 411 kts | 90° |
| 2026-05-04 19:32 | 19.60996 | -98.28751 | 23843 ft | 415 kts | 90° |
| 2026-05-04 19:32 | 19.60914 | -98.25687 | 24224 ft | 416 kts | 90° |
| 2026-05-04 19:32 | 19.60828 | -98.22618 | 24671 ft | 417 kts | 90° |
| 2026-05-04 19:32 | 19.60742 | -98.19579 | 25064 ft | 419 kts | 90° |
| 2026-05-04 19:33 | 19.60654 | -98.16486 | 25436 ft | 421 kts | 90° |
| 2026-05-04 19:33 | 19.60564 | -98.13371 | 25802 ft | 424 kts | 90° |
| 2026-05-04 19:33 | 19.60475 | -98.10241 | 26167 ft | 426 kts | 90° |
| 2026-05-04 19:33 | 19.60384 | -98.07094 | 26538 ft | 428 kts | 89° |
| 2026-05-04 19:34 | 19.60292 | -98.03930 | 26904 ft | 430 kts | 89° |
| 2026-05-04 19:34 | 19.60449 | -98.00771 | 27231 ft | 429 kts | 75° |
| 2026-05-04 19:34 | 19.61463 | -97.97812 | 27600 ft | 427 kts | 62° |
| 2026-05-04 19:34 | 19.62796 | -97.95001 | 28004 ft | 427 kts | 61° |
| 2026-05-04 19:35 | 19.64170 | -97.92185 | 28265 ft | 432 kts | 60° |
| 2026-05-04 19:35 | 19.65557 | -97.89347 | 28575 ft | 435 kts | 60° |
| 2026-05-04 19:35 | 19.66943 | -97.86487 | 28944 ft | 436 kts | 61° |
| 2026-05-04 19:35 | 19.68319 | -97.83614 | 29286 ft | 438 kts | 61° |
| 2026-05-04 19:36 | 19.69693 | -97.80722 | 29602 ft | 440 kts | 61° |
| 2026-05-04 19:36 | 19.71070 | -97.77810 | 29925 ft | 442 kts | 61° |
| 2026-05-04 19:36 | 19.72448 | -97.74886 | 30224 ft | 444 kts | 61° |
| 2026-05-04 19:36 | 19.73834 | -97.71942 | 30484 ft | 447 kts | 61° |
| 2026-05-04 19:37 | 19.75225 | -97.68986 | 30719 ft | 449 kts | 61° |
| 2026-05-04 19:37 | 19.76626 | -97.66007 | 30952 ft | 452 kts | 61° |
| 2026-05-04 19:37 | 19.78034 | -97.63014 | 31165 ft | 454 kts | 61° |
| 2026-05-04 19:37 | 19.79449 | -97.60004 | 31411 ft | 456 kts | 61° |
| 2026-05-04 19:38 | 19.80865 | -97.56989 | 31754 ft | 456 kts | 61° |
| 2026-05-04 19:38 | 19.82276 | -97.53982 | 32143 ft | 454 kts | 61° |
| 2026-05-04 19:38 | 19.83682 | -97.50984 | 32457 ft | 454 kts | 61° |
| 2026-05-04 19:38 | 19.85093 | -97.47976 | 32710 ft | 456 kts | 61° |
| 2026-05-04 19:39 | 19.86509 | -97.44957 | 33002 ft | 457 kts | 61° |
| 2026-05-04 19:39 | 19.87922 | -97.41941 | 33335 ft | 456 kts | 61° |
| 2026-05-04 19:39 | 19.89337 | -97.38921 | 33651 ft | 456 kts | 61° |
| 2026-05-04 19:39 | 19.90751 | -97.35899 | 33932 ft | 457 kts | 61° |
| 2026-05-04 19:40 | 19.92166 | -97.32869 | 34177 ft | 458 kts | 61° |
| 2026-05-04 19:40 | 19.93582 | -97.29834 | 34408 ft | 459 kts | 61° |
| 2026-05-04 19:40 | 19.95000 | -97.26792 | 34631 ft | 460 kts | 61° |
| 2026-05-04 19:40 | 19.96421 | -97.23740 | 34856 ft | 461 kts | 61° |
| 2026-05-04 19:41 | 19.97844 | -97.20683 | 35098 ft | 462 kts | 61° |
| 2026-05-04 19:41 | 19.99269 | -97.17621 | 35349 ft | 463 kts | 61° |
| 2026-05-04 19:41 | 20.00692 | -97.14560 | 35654 ft | 461 kts | 61° |
| 2026-05-04 19:41 | 20.02114 | -97.11500 | 35859 ft | 462 kts | 61° |
| 2026-05-04 19:42 | 20.03523 | -97.08467 | 36005 ft | 465 kts | 61° |
| 2026-05-04 19:42 | 20.04957 | -97.05380 | 36195 ft | 466 kts | 61° |
| 2026-05-04 19:42 | 20.06391 | -97.02288 | 36419 ft | 467 kts | 61° |
| 2026-05-04 19:42 | 20.07829 | -96.99188 | 36603 ft | 467 kts | 61° |
| 2026-05-04 19:43 | 20.09267 | -96.96085 | 36798 ft | 468 kts | 61° |
| 2026-05-04 19:43 | 20.10708 | -96.92974 | 36972 ft | 470 kts | 61° |
| 2026-05-04 19:43 | 20.12157 | -96.89844 | 36963 ft | 474 kts | 61° |
| 2026-05-04 19:44 | 20.15070 | -96.83544 | 36971 ft | 474 kts | 61° |
| 2026-05-04 19:44 | 20.17955 | -96.77298 | 36960 ft | 467 kts | 61° |
| 2026-05-04 19:45 | 20.20970 | -96.71206 | 36973 ft | 464 kts | 56° |
| 2026-05-04 19:45 | 20.24344 | -96.65367 | 36965 ft | 463 kts | 55° |
| 2026-05-04 19:46 | 20.27748 | -96.59547 | 36962 ft | 463 kts | 55° |
| 2026-05-04 19:46 | 20.31108 | -96.53689 | 36966 ft | 464 kts | 56° |
| 2026-05-04 19:47 | 20.34450 | -96.47802 | 36964 ft | 465 kts | 56° |
| 2026-05-04 19:47 | 20.37793 | -96.41901 | 36969 ft | 466 kts | 56° |
| 2026-05-04 19:48 | 20.41140 | -96.35990 | 36965 ft | 466 kts | 56° |
| 2026-05-04 19:48 | 20.53726 | -96.13718 | 36963 ft | 467 kts | 56° |
| 2026-05-04 19:49 | 20.67141 | -95.89935 | 36969 ft | 468 kts | 56° |
| 2026-05-04 19:49 | 20.80519 | -95.66107 | 36972 ft | 467 kts | 55° |
| 2026-05-04 19:50 | 20.93862 | -95.42243 | 36970 ft | 467 kts | 55° |
| 2026-05-04 19:50 | 21.03925 | -95.16849 | 37015 ft | 474 kts | 78° |
| 2026-05-04 19:51 | 21.09630 | -94.89591 | 36985 ft | 471 kts | 69° |
| 2026-05-04 19:51 | 21.23828 | -94.41038 | 36972 ft | 472 kts | 70° |
| 2026-05-04 19:52 | 21.38916 | -93.87218 | 36976 ft | 471 kts | 69° |
| 2026-05-04 19:52 | 21.53922 | -93.33181 | 37010 ft | 473 kts | 70° |
| 2026-05-04 19:53 | 21.68810 | -92.78899 | 36997 ft | 474 kts | 70° |
| 2026-05-04 19:53 | 21.83557 | -92.24198 | 37006 ft | 477 kts | 70° |
| 2026-05-04 19:54 | 21.98198 | -91.69232 | 37002 ft | 478 kts | 70° |
| 2026-05-04 19:54 | 22.12740 | -91.13884 | 37020 ft | 480 kts | 70° |
| 2026-05-04 19:54 | 22.19975 | -90.86093 | 36854 ft | 484 kts | 70° |
| 2026-05-04 19:55 | 22.27203 | -90.58039 | 36869 ft | 484 kts | 70° |
| 2026-05-04 19:55 | 22.41417 | -90.02108 | 36997 ft | 482 kts | 70° |
| 2026-05-04 19:56 | 22.55463 | -89.45987 | 36997 ft | 484 kts | 70° |
| 2026-05-04 19:56 | 22.69350 | -88.89593 | 36993 ft | 485 kts | 71° |
| 2026-05-04 19:57 | 22.83064 | -88.32977 | 37011 ft | 486 kts | 71° |
| 2026-05-04 19:57 | 22.96647 | -87.76062 | 37025 ft | 488 kts | 71° |
| 2026-05-04 19:58 | 23.10058 | -87.18838 | 37023 ft | 491 kts | 71° |
| 2026-05-04 19:58 | 23.23345 | -86.61112 | 37033 ft | 493 kts | 71° |
| 2026-05-04 19:59 | 23.36452 | -86.02974 | 36990 ft | 496 kts | 72° |
| 2026-05-04 19:59 | 23.49371 | -85.44492 | 37022 ft | 497 kts | 71° |
| 2026-05-04 20:00 | 23.60361 | -84.94412 | 36990 ft | 500 kts | 73° |
| 2026-05-04 20:00 | 23.66709 | -84.64860 | 36955 ft | 500 kts | 73° |
| 2026-05-04 20:00 | 23.69841 | -84.50212 | 35280 ft | 489 kts | 73° |
| 2026-05-04 20:01 | 23.72664 | -84.36943 | 33780 ft | 477 kts | 73° |
| 2026-05-04 20:01 | 23.74157 | -84.29917 | 32875 ft | 472 kts | 73° |
| 2026-05-04 20:01 | 23.75625 | -84.22980 | 32069 ft | 466 kts | 74° |
| 2026-05-04 20:01 | 23.77048 | -84.16229 | 31335 ft | 460 kts | 74° |
| 2026-05-04 20:02 | 23.78492 | -84.09350 | 30601 ft | 455 kts | 74° |
| 2026-05-04 20:02 | 23.79878 | -84.02735 | 29859 ft | 451 kts | 74° |
| 2026-05-04 20:02 | 23.81295 | -83.95996 | 29011 ft | 446 kts | 72° |
| 2026-05-04 20:02 | 23.83451 | -83.89725 | 28093 ft | 439 kts | 63° |
| 2026-05-04 20:03 | 23.85866 | -83.83632 | 27264 ft | 435 kts | 63° |
| 2026-05-04 20:03 | 23.88193 | -83.77666 | 26508 ft | 430 kts | 64° |
| 2026-05-04 20:03 | 23.90517 | -83.71586 | 25747 ft | 426 kts | 64° |
| 2026-05-04 20:03 | 23.92742 | -83.65712 | 25016 ft | 422 kts | 64° |
| 2026-05-04 20:04 | 23.94970 | -83.59813 | 24298 ft | 419 kts | 64° |
| 2026-05-04 20:04 | 23.97157 | -83.54013 | 23526 ft | 405 kts | 64° |
| 2026-05-04 20:04 | 23.99289 | -83.48357 | 22734 ft | 401 kts | 65° |
| 2026-05-04 20:04 | 24.03108 | -83.38212 | 21421 ft | 394 kts | 65° |
| 2026-05-04 20:05 | 24.07223 | -83.27250 | 20050 ft | 386 kts | 65° |
| 2026-05-04 20:05 | 24.11264 | -83.16460 | 18695 ft | 380 kts | 65° |
| 2026-05-04 20:05 | 24.15231 | -83.05838 | 17218 ft | 375 kts | 66° |
| 2026-05-04 20:05 | 24.19144 | -82.95335 | 15816 ft | 367 kts | 66° |
| 2026-05-04 20:06 | 24.22961 | -82.85067 | 14500 ft | 361 kts | 66° |
| 2026-05-04 20:06 | 24.26716 | -82.74939 | 13077 ft | 356 kts | 66° |
| 2026-05-04 20:06 | 24.30193 | -82.65540 | 11766 ft | 349 kts | 66° |
| 2026-05-04 20:06 | 24.32004 | -82.60637 | 11098 ft | 341 kts | 66° |
| 2026-05-04 20:07 | 24.33739 | -82.55930 | 10440 ft | 326 kts | 66° |
| 2026-05-04 20:07 | 24.35391 | -82.51445 | 9980 ft | 306 kts | 66° |
| 2026-05-04 20:07 | 24.36427 | -82.48628 | 9627 ft | 297 kts | 66° |
| 2026-05-04 20:07 | 24.38480 | -82.43051 | 8705 ft | 288 kts | 67° |
| 2026-05-04 20:08 | 24.39447 | -82.40419 | 8481 ft | 275 kts | 66° |
| 2026-05-04 20:08 | 24.40859 | -82.36573 | 7853 ft | 270 kts | 67° |
| 2026-05-04 20:08 | 24.42253 | -82.32776 | 7202 ft | 267 kts | 67° |
| 2026-05-04 20:08 | 24.43621 | -82.29043 | 6755 ft | 261 kts | 67° |
| 2026-05-04 20:09 | 24.44998 | -82.25287 | 6401 ft | 272 kts | 67° |
| 2026-05-04 20:09 | 24.46444 | -82.21335 | 5911 ft | 283 kts | 68° |
| 2026-05-04 20:09 | 24.48362 | -82.16086 | 5154 ft | 280 kts | 68° |
| 2026-05-04 20:09 | 24.49591 | -82.12717 | 4672 ft | 279 kts | 68° |
| 2026-05-04 20:10 | 24.50311 | -82.10745 | 4386 ft | 278 kts | 68° |
| 2026-05-04 20:10 | 24.51026 | -82.08781 | 4113 ft | 276 kts | 68° |
| 2026-05-04 20:10 | 24.51737 | -82.06830 | 3828 ft | 275 kts | 68° |
| 2026-05-04 20:10 | 24.52440 | -82.04902 | 3649 ft | 266 kts | 68° |
| 2026-05-04 20:11 | 24.53110 | -82.03061 | 3544 ft | 252 kts | 68° |
| 2026-05-04 20:11 | 24.53736 | -82.01339 | 3437 ft | 233 kts | 67° |
| 2026-05-04 20:11 | 24.54312 | -81.99755 | 3317 ft | 214 kts | 67° |
| 2026-05-04 20:11 | 24.54844 | -81.98291 | 3176 ft | 198 kts | 67° |
| 2026-05-04 20:12 | 24.55328 | -81.96935 | 3052 ft | 183 kts | 71° |
| 2026-05-04 20:12 | 24.55447 | -81.95615 | 3024 ft | 170 kts | 90° |
| 2026-05-04 20:12 | 24.55441 | -81.94264 | 2911 ft | 184 kts | 89° |
| 2026-05-04 20:12 | 24.55449 | -81.92831 | 2714 ft | 188 kts | 89° |
| 2026-05-04 20:13 | 24.55459 | -81.91431 | 2493 ft | 178 kts | 89° |
| 2026-05-04 20:13 | 24.55471 | -81.90122 | 2322 ft | 162 kts | 88° |
| 2026-05-04 20:13 | 24.55482 | -81.88923 | 2118 ft | 153 kts | 88° |
| 2026-05-04 20:13 | 24.55493 | -81.87778 | 1966 ft | 148 kts | 86° |
| 2026-05-04 20:14 | 24.55504 | -81.86665 | 1752 ft | 143 kts | 88° |
| 2026-05-04 20:14 | 24.55516 | -81.85579 | 1555 ft | 142 kts | 87° |
| 2026-05-04 20:14 | 24.55528 | -81.84497 | 1377 ft | 142 kts | 87° |
| 2026-05-04 20:14 | 24.55539 | -81.83417 | 1199 ft | 141 kts | 87° |
| 2026-05-04 20:15 | 24.55551 | -81.82339 | 1031 ft | 143 kts | 89° |
| 2026-05-04 20:15 | 24.55561 | -81.81228 | 996 ft | 147 kts | 88° |
| 2026-05-04 20:15 | 24.55579 | -81.80124 | 815 ft | 142 kts | 88° |
| 2026-05-04 20:15 | 24.55585 | -81.79086 | 582 ft | 136 kts | 89° |
| 2026-05-04 20:16 | 24.55574 | -81.78031 | 364 ft | 135 kts | 86° |
| 2026-05-04 20:16 | 24.55610 | -81.77019 | 126 ft | 128 kts | 88° |
| 2026-05-04 20:16 | 24.55622 | -81.76121 | 13 ft | 101 kts | 90° |
| 2026-05-04 20:16 | 24.55619 | -81.75735 | 18 ft | 19 kts | 93° |
| 2026-05-04 20:17 | 24.55617 | -81.75624 | 20 ft | 12 kts | 99° |
| 2026-05-04 20:17 | 24.55565 | -81.75589 | 21 ft | 0 kts | 180° |
| 2026-05-04 20:18 | 24.55563 | -81.75589 | 21 ft | 1 kts | 180° |
| 2026-05-04 20:18 | 24.55535 | -81.75589 | 19 ft | 7 kts | 180° |
| 2026-05-04 20:18 | 24.55474 | -81.75590 | 18 ft | 10 kts | 180° |
| 2026-05-04 20:18 | 24.55437 | -81.75544 | 18 ft | 10 kts | 86° |
| 2026-05-04 20:19 | 24.55467 | -81.75487 | 19 ft | 7 kts | 24° |
| 2026-05-04 20:19 | 24.55494 | -81.75517 | 19 ft | 7 kts | 265° |
| 2026-05-04 20:19 | 24.55479 | -81.75549 | 19 ft | 3 kts | 229° |
| 2026-05-04 20:19 | 24.55476 | -81.75553 | 18 ft | 0 kts | 230° |